createdAt,value
2018-07-19T00:00:22.997Z,101594.11
2018-07-19T00:02:53.859Z,101605.03
2018-07-19T00:05:26.653Z,101603.76
2018-07-19T00:08:11.589Z,101602.52
2018-07-19T00:10:55.931Z,101606.27
2018-07-19T00:16:25.087Z,101605.84
2018-07-19T00:18:54.512Z,101601.22
2018-07-19T00:21:36.275Z,101604.58
2018-07-19T00:24:05.761Z,101609.61
2018-07-19T00:26:35.257Z,101607.06
2018-07-19T00:29:04.603Z,101607.06
2018-07-19T00:31:33.945Z,101604.98
2018-07-19T00:34:03.329Z,101600.77
2018-07-19T00:36:32.703Z,101600.78
2018-07-19T00:39:02.145Z,101595.33
2018-07-19T00:41:31.581Z,101597.42
2018-07-19T00:44:00.945Z,101591.56
2018-07-19T00:46:30.642Z,101589.84
2018-07-19T00:49:00.521Z,101583.58
2018-07-19T00:51:31.491Z,101591.92
2018-07-19T00:54:00.869Z,101588.58
2018-07-19T00:56:30.441Z,101585.61
2018-07-19T00:58:59.921Z,101592.73
2018-07-19T01:01:29.106Z,101593.97
2018-07-19T01:03:58.578Z,101597.75
2018-07-19T01:06:28.134Z,101593.95
2018-07-19T01:08:57.260Z,101589.38
2018-07-19T01:11:29.020Z,101590.14
2018-07-19T01:14:01.871Z,101589.64
2018-07-19T01:16:31.243Z,101587.18
2018-07-19T01:19:35.944Z,101595.10
2018-07-19T01:22:14.242Z,101590.89
2018-07-19T01:24:43.727Z,101585.01
2018-07-19T01:27:15.754Z,101590.00
2018-07-19T01:29:51.434Z,101595.02
2018-07-19T01:32:25.919Z,101590.36
2018-07-19T01:34:55.333Z,101584.12
2018-07-19T01:37:31.207Z,101590.78
2018-07-19T01:40:00.726Z,101589.95
2018-07-19T01:43:03.110Z,101593.22
2018-07-19T01:45:38.482Z,101588.62
2018-07-19T01:48:26.549Z,101581.47
2018-07-19T01:51:11.799Z,101579.34
2018-07-19T01:53:41.276Z,101575.14
2018-07-19T01:56:11.078Z,101574.73
2018-07-19T01:58:40.596Z,101575.99
2018-07-19T02:01:09.995Z,101575.95
2018-07-19T02:03:39.365Z,101568.42
2018-07-19T02:06:08.729Z,101572.58
2018-07-19T02:08:38.089Z,101577.58
2018-07-19T02:11:07.562Z,101578.80
2018-07-19T02:16:37.663Z,101585.43
2018-07-19T02:19:17.773Z,101579.61
2018-07-19T02:23:58.111Z,101578.73
2018-07-19T02:26:39.442Z,101579.94
2018-07-19T02:29:12.965Z,101581.16
2018-07-19T02:31:44.998Z,101581.20
2018-07-19T02:34:20.189Z,101579.50
2018-07-19T02:36:55.413Z,101587.84
2018-07-19T02:39:47.657Z,101589.09
2018-07-19T02:42:17.556Z,101593.67
2018-07-19T02:44:46.925Z,101593.67
2018-07-19T02:47:16.369Z,101586.10
2018-07-19T02:49:45.750Z,101585.28
2018-07-19T02:52:15.282Z,101590.66
2018-07-19T02:54:44.629Z,101586.05
2018-07-19T02:57:13.987Z,101582.27
2018-07-19T02:59:43.390Z,101581.85
2018-07-19T03:02:12.929Z,101577.25
2018-07-19T03:04:42.393Z,101573.03
2018-07-19T03:07:11.809Z,101568.83
2018-07-19T03:10:52.292Z,101574.14
2018-07-19T03:13:57.686Z,101583.00
2018-07-19T03:20:49.281Z,101581.74
2018-07-19T03:23:18.808Z,101586.34
2018-07-19T03:25:48.115Z,101576.76
2018-07-19T03:28:30.704Z,101569.67
2018-07-19T03:31:08.122Z,101573.84
2018-07-19T03:33:42.926Z,101575.51
2018-07-19T03:36:25.941Z,101578.83
2018-07-19T03:38:58.226Z,101547.89
2018-07-19T03:41:27.661Z,101544.19
2018-07-19T03:43:57.109Z,101545.49
2018-07-19T03:46:26.438Z,101548.05
2018-07-19T03:48:55.778Z,101545.21
2018-07-19T03:51:25.217Z,101549.78
2018-07-19T03:53:54.541Z,101545.20
2018-07-19T03:56:23.945Z,101552.75
2018-07-19T03:58:53.298Z,101553.56
2018-07-19T04:01:22.817Z,101539.42
2018-07-19T04:03:52.224Z,101542.81
2018-07-19T04:06:21.303Z,101542.78
2018-07-19T04:08:50.657Z,101551.13
2018-07-19T04:11:20.089Z,101547.30
2018-07-19T04:13:49.482Z,101541.92
2018-07-19T04:16:18.698Z,101538.23
2018-07-19T04:18:48.026Z,101542.48
2018-07-19T04:21:17.412Z,101537.98
2018-07-19T04:23:46.850Z,101541.83
2018-07-19T04:26:16.266Z,101544.39
2018-07-19T04:29:26.367Z,101546.55
2018-07-19T04:31:55.830Z,101547.41
2018-07-19T04:34:25.248Z,101547.07
2018-07-19T04:37:06.233Z,101550.00
2018-07-19T04:39:39.274Z,101556.31
2018-07-19T04:42:15.842Z,101561.31
2018-07-19T04:44:45.277Z,101564.28
2018-07-19T04:47:15.010Z,101561.34
2018-07-19T04:49:44.366Z,101570.16
2018-07-19T04:52:13.738Z,101569.73
2018-07-19T04:54:43.666Z,101572.69
2018-07-19T04:57:13.027Z,101581.47
2018-07-19T04:59:42.856Z,101581.03
2018-07-19T05:02:12.017Z,101582.75
2018-07-19T05:04:41.466Z,101581.08
2018-07-19T05:07:10.830Z,101593.19
2018-07-19T05:09:40.238Z,101589.84
2018-07-19T05:12:14.853Z,101593.59
2018-07-19T05:14:51.915Z,101600.31
2018-07-19T05:20:55.670Z,101603.63
2018-07-19T05:23:25.633Z,101605.74
2018-07-19T05:25:54.822Z,101605.35
2018-07-19T05:28:24.213Z,101602.84
2018-07-19T05:30:53.594Z,101604.91
2018-07-19T05:33:24.189Z,101600.75
2018-07-19T05:35:59.445Z,101602.45
2018-07-19T05:38:34.500Z,101601.62
2018-07-19T05:41:03.966Z,101603.75
2018-07-19T05:44:24.110Z,101609.59
2018-07-19T05:46:53.766Z,101610.05
2018-07-19T05:49:23.213Z,101606.26
2018-07-19T05:51:52.344Z,101603.75
2018-07-19T05:54:21.754Z,101600.45
2018-07-19T05:56:51.265Z,101603.37
2018-07-19T05:59:21.693Z,101598.33
2018-07-19T06:01:51.074Z,101604.20
2018-07-19T06:04:20.449Z,101605.03
2018-07-19T06:06:49.858Z,101598.73
2018-07-19T06:09:19.319Z,101601.25
2018-07-19T06:11:49.046Z,101596.60
2018-07-19T06:14:19.237Z,101603.68
2018-07-19T06:16:48.799Z,101598.16
2018-07-19T06:19:18.122Z,101599.87
2018-07-19T06:21:47.546Z,101599.87
2018-07-19T06:24:17.200Z,101599.83
2018-07-19T06:26:46.633Z,101594.72
2018-07-19T06:29:15.977Z,101604.74
2018-07-19T06:31:45.370Z,101603.77
2018-07-19T06:34:14.575Z,101599.52
2018-07-19T06:36:43.942Z,101599.86
2018-07-19T06:39:13.383Z,101601.12
2018-07-19T06:41:42.690Z,101598.95
2018-07-19T06:44:12.091Z,101601.46
2018-07-19T06:46:42.114Z,101592.56
2018-07-19T06:49:11.593Z,101593.21
2018-07-19T06:51:41.092Z,101596.97
2018-07-19T06:54:10.474Z,101599.86
2018-07-19T06:56:39.842Z,101598.42
2018-07-19T06:59:09.336Z,101605.55
2018-07-19T07:01:38.807Z,101597.39
2018-07-19T07:04:08.217Z,101603.97
2018-07-19T07:06:37.618Z,101599.66
2018-07-19T07:09:10.436Z,101600.01
2018-07-19T07:11:40.410Z,101601.30
2018-07-19T07:14:10.065Z,101602.35
2018-07-19T07:16:39.762Z,101601.92
2018-07-19T07:19:09.189Z,101598.52
2018-07-19T07:21:38.662Z,101600.55
2018-07-19T07:24:08.082Z,101597.95
2018-07-19T07:26:37.267Z,101601.77
2018-07-19T07:29:06.658Z,101605.53
2018-07-19T07:31:36.075Z,101605.70
2018-07-19T07:34:05.640Z,101611.52
2018-07-19T07:36:34.946Z,101609.41
2018-07-19T07:39:06.141Z,101609.71
2018-07-19T07:41:35.918Z,101611.73
2018-07-19T07:44:05.395Z,101609.49
2018-07-19T07:46:34.714Z,101605.98
2018-07-19T07:49:04.118Z,101610.05
2018-07-19T07:51:33.607Z,101609.54
2018-07-19T07:54:02.975Z,101611.58
2018-07-19T07:56:32.800Z,101605.25
2018-07-19T07:59:02.955Z,101607.33
2018-07-19T08:01:32.305Z,101614.06
2018-07-19T08:04:01.693Z,101610.66
2018-07-19T08:06:31.100Z,101603.55
2018-07-19T08:09:00.532Z,101608.70
2018-07-19T08:11:30.622Z,101602.54
2018-07-19T08:14:00.035Z,101599.07
2018-07-19T08:16:30.097Z,101605.28
2018-07-19T08:18:59.736Z,101601.80
2018-07-19T08:21:29.150Z,101595.53
2018-07-19T08:23:59.238Z,101599.53
2018-07-19T08:26:29.116Z,101591.44
2018-07-19T08:28:58.636Z,101597.96
2018-07-19T08:31:27.961Z,101601.77
2018-07-19T08:33:57.401Z,101602.19
2018-07-19T08:36:26.800Z,101595.23
2018-07-19T08:38:56.239Z,101586.84
2018-07-19T08:41:25.607Z,101592.98
2018-07-19T08:43:54.964Z,101590.80
2018-07-19T08:46:24.425Z,101593.30
2018-07-19T08:48:53.806Z,101589.73
2018-07-19T08:51:23.263Z,101586.95
2018-07-19T08:53:52.746Z,101581.97
2018-07-19T08:56:22.148Z,101585.45
2018-07-19T08:58:51.563Z,101587.16
2018-07-19T09:01:21.098Z,101584.77
2018-07-19T09:03:50.794Z,101591.92
2018-07-19T09:06:19.897Z,101592.79
2018-07-19T09:08:49.080Z,101593.48
2018-07-19T09:11:18.612Z,101588.25
2018-07-19T09:13:48.361Z,101585.56
2018-07-19T09:16:18.121Z,101587.72
2018-07-19T09:18:47.730Z,101582.44
2018-07-19T09:21:17.645Z,101583.77
2018-07-19T09:23:46.994Z,101578.36
2018-07-19T09:26:17.171Z,101589.42
2018-07-19T09:28:47.510Z,101585.60
2018-07-19T09:31:17.438Z,101577.09
2018-07-19T09:33:48.014Z,101572.22
2018-07-19T09:36:17.735Z,101573.05
2018-07-19T09:38:48.778Z,101569.56
2018-07-19T09:41:18.489Z,101567.08
2018-07-19T09:43:48.066Z,101568.52
2018-07-19T09:46:18.590Z,101571.63
2018-07-19T09:48:50.318Z,101569.55
2018-07-19T09:51:19.812Z,101572.96
2018-07-19T09:53:49.558Z,101577.80
2018-07-19T09:56:19.008Z,101570.54
2018-07-19T09:58:49.026Z,101568.27
2018-07-19T10:01:20.103Z,101571.47
2018-07-19T10:03:51.181Z,101576.41
2018-07-19T10:06:21.236Z,101570.78
2018-07-19T10:08:50.650Z,101571.41
2018-07-19T10:11:21.083Z,101556.83
2018-07-19T10:13:50.598Z,101568.48
2018-07-19T10:16:20.116Z,101570.19
2018-07-19T10:18:49.484Z,101556.48
2018-07-19T10:21:20.137Z,101562.66
2018-07-19T10:23:50.486Z,101560.08
2018-07-19T10:26:19.958Z,101564.45
2018-07-19T10:28:49.698Z,101557.14
2018-07-19T10:31:20.139Z,101559.76
2018-07-19T10:33:49.678Z,101557.99
2018-07-19T10:36:19.198Z,101555.85
2018-07-19T10:38:49.445Z,101551.55
2018-07-19T10:41:18.973Z,101552.95
2018-07-19T10:43:48.491Z,101554.49
2018-07-19T10:46:18.131Z,101549.06
2018-07-19T10:48:47.574Z,101548.56
2018-07-19T10:51:17.693Z,101546.86
2018-07-19T10:53:47.182Z,101545.28
2018-07-19T10:56:16.666Z,101557.03
2018-07-19T10:58:46.487Z,101559.27
2018-07-19T11:01:18.512Z,101550.39
2018-07-19T11:03:47.982Z,101540.80
2018-07-19T11:06:17.346Z,101532.14
2018-07-19T11:08:46.765Z,101537.80
2018-07-19T11:11:16.501Z,101537.64
2018-07-19T11:13:45.862Z,101530.27
2018-07-19T11:16:15.306Z,101534.27
2018-07-19T11:18:44.710Z,101534.05
2018-07-19T11:21:14.959Z,101540.89
2018-07-19T11:23:45.288Z,101541.69
2018-07-19T11:26:14.747Z,101535.52
2018-07-19T11:28:44.941Z,101530.84
2018-07-19T11:31:14.721Z,101536.94
2018-07-19T11:33:44.113Z,101528.50
2018-07-19T11:36:17.881Z,101524.69
2018-07-19T11:38:47.899Z,101521.66
2018-07-19T11:41:17.878Z,101524.04
2018-07-19T11:43:47.479Z,101521.38
2018-07-19T11:46:18.459Z,101519.50
2018-07-19T11:48:52.136Z,101516.23
2018-07-19T11:51:21.492Z,101513.97
2018-07-19T11:53:50.886Z,101512.47
2018-07-19T11:56:21.370Z,101507.25
2018-07-19T11:58:51.387Z,101504.63
2018-07-19T12:01:20.894Z,101506.61
2018-07-19T12:03:50.590Z,101496.31
2018-07-19T12:06:20.073Z,101511.23
2018-07-19T12:08:50.514Z,101508.34
2018-07-19T12:11:19.930Z,101506.98
2018-07-19T12:13:50.634Z,101506.03
2018-07-19T12:16:21.562Z,101504.34
2018-07-19T12:18:51.245Z,101504.45
2018-07-19T12:21:21.781Z,101505.19
2018-07-19T12:23:51.297Z,101508.25
2018-07-19T12:26:20.839Z,101511.09
2018-07-19T12:28:50.740Z,101508.80
2018-07-19T12:31:20.219Z,101504.32
2018-07-19T12:33:49.695Z,101510.67
2018-07-19T12:36:19.688Z,101493.72
2018-07-19T12:38:49.696Z,101499.52
2018-07-19T12:41:19.087Z,101496.33
2018-07-19T12:43:48.514Z,101498.88
2018-07-19T12:46:17.930Z,101485.41
2018-07-19T12:48:47.522Z,101481.39
2018-07-19T12:51:17.050Z,101493.05
2018-07-19T12:53:46.640Z,101479.57
2018-07-19T12:56:16.258Z,101481.94
2018-07-19T12:58:45.768Z,101473.58
2018-07-19T13:01:15.162Z,101485.75
2018-07-19T13:03:44.913Z,101478.34
2018-07-19T13:06:14.357Z,101477.45
2018-07-19T13:08:43.875Z,101476.78
2018-07-19T13:11:13.309Z,101479.47
2018-07-19T13:13:43.283Z,101479.95
2018-07-19T13:16:13.134Z,101480.54
2018-07-19T13:18:42.925Z,101473.11
2018-07-19T13:21:13.615Z,101470.56
2018-07-19T13:23:46.045Z,101482.06
2018-07-19T13:26:15.999Z,101476.86
2018-07-19T13:28:45.519Z,101475.37
2018-07-19T13:31:14.974Z,101482.13
2018-07-19T13:33:46.629Z,101479.45
2018-07-19T13:36:17.082Z,101474.92
2018-07-19T13:38:47.584Z,101478.14
2018-07-19T13:41:18.051Z,101469.22
2018-07-19T13:43:49.670Z,101462.66
2018-07-19T13:46:20.754Z,101478.68
2018-07-19T13:48:50.236Z,101477.12
2018-07-19T13:51:19.726Z,101473.53
2018-07-19T13:54:18.099Z,101458.61
2018-07-19T13:56:47.840Z,101465.88
2018-07-19T13:59:17.661Z,101461.55
2018-07-19T14:01:47.154Z,101460.74
2018-07-19T14:04:16.727Z,101462.88
2018-07-19T14:06:46.154Z,101462.40
2018-07-19T14:09:16.125Z,101465.34
2018-07-19T14:11:45.979Z,101462.48
2018-07-19T14:14:15.395Z,101468.08
2018-07-19T14:16:45.298Z,101471.45
2018-07-19T14:19:14.702Z,101467.08
2018-07-19T14:21:44.143Z,101448.73
2018-07-19T14:24:13.913Z,101452.66
2018-07-19T14:26:43.310Z,101454.41
2018-07-19T14:29:12.707Z,101454.76
2018-07-19T14:31:42.159Z,101455.11
2018-07-19T14:34:11.528Z,101446.48
2018-07-19T14:36:40.947Z,101440.54
2018-07-19T14:39:12.873Z,101453.33
2018-07-19T14:41:42.298Z,101456.66
2018-07-19T14:44:11.815Z,101455.89
2018-07-19T14:46:41.224Z,101453.59
2018-07-19T14:49:10.577Z,101460.08
2018-07-19T14:51:39.973Z,101458.56
2018-07-19T14:54:09.446Z,101462.81
2018-07-19T14:56:38.827Z,101454.15
2018-07-19T14:59:08.251Z,101451.77
2018-07-19T15:01:37.657Z,101449.05
2018-07-19T15:04:07.144Z,101439.94
2018-07-19T15:06:36.494Z,101430.26
2018-07-19T15:09:09.867Z,101424.05
2018-07-19T15:11:39.297Z,101434.70
2018-07-19T15:14:09.178Z,101437.45
2018-07-19T15:16:38.545Z,101443.39
2018-07-19T15:19:07.956Z,101433.55
2018-07-19T15:21:37.609Z,101436.10
2018-07-19T15:24:07.123Z,101429.50
2018-07-19T15:26:36.645Z,101424.18
2018-07-19T15:29:06.115Z,101428.50
2018-07-19T15:31:35.515Z,101432.02
2018-07-19T15:34:05.034Z,101432.49
2018-07-19T15:36:34.433Z,101426.66
2018-07-19T15:39:03.850Z,101420.37
2018-07-19T15:41:33.253Z,101425.72
2018-07-19T15:44:02.545Z,101422.67
2018-07-19T15:46:32.171Z,101423.95
2018-07-19T15:49:01.653Z,101421.64
2018-07-19T15:51:31.474Z,101422.42
2018-07-19T15:54:00.854Z,101423.91
2018-07-19T15:56:30.193Z,101423.75
2018-07-19T15:58:59.449Z,101422.35
2018-07-19T16:01:28.978Z,101421.95
2018-07-19T16:03:58.334Z,101427.72
2018-07-19T16:06:27.977Z,101427.46
2018-07-19T16:08:57.385Z,101419.27
2018-07-19T16:11:27.044Z,101415.40
2018-07-19T16:13:56.467Z,101427.49
2018-07-19T16:16:25.898Z,101418.99
2018-07-19T16:18:55.279Z,101406.75
2018-07-19T16:21:24.697Z,101404.03
2018-07-19T16:23:53.825Z,101412.77
2018-07-19T16:26:23.334Z,101416.39
2018-07-19T16:28:52.706Z,101400.98
2018-07-19T16:31:22.210Z,101415.52
2018-07-19T16:33:51.748Z,101411.92
2018-07-19T16:36:21.781Z,101407.49
2018-07-19T16:38:51.393Z,101412.23
2018-07-19T16:41:20.573Z,101406.75
2018-07-19T16:43:49.915Z,101410.44
2018-07-19T16:46:19.617Z,101408.53
2018-07-19T16:48:49.082Z,101405.84
2018-07-19T16:51:18.487Z,101411.73
2018-07-19T16:53:47.906Z,101413.13
2018-07-19T16:56:17.217Z,101407.92
2018-07-19T16:58:46.574Z,101413.17
2018-07-19T17:01:16.251Z,101410.52
2018-07-19T17:03:45.627Z,101406.08
2018-07-19T17:06:15.189Z,101407.20
2018-07-19T17:08:44.746Z,101405.20
2018-07-19T17:11:14.117Z,101410.97
2018-07-19T17:13:43.958Z,101406.93
2018-07-19T17:16:13.339Z,101408.64
2018-07-19T17:18:43.206Z,101410.40
2018-07-19T17:21:12.688Z,101402.05
2018-07-19T17:23:41.793Z,101417.40
2018-07-19T17:26:11.196Z,101412.55
2018-07-19T17:28:40.589Z,101416.16
2018-07-19T17:31:10.082Z,101416.32
2018-07-19T17:33:39.578Z,101418.76
2018-07-19T17:36:08.991Z,101413.42
2018-07-19T17:38:38.338Z,101413.65
2018-07-19T17:41:08.442Z,101408.98
2018-07-19T17:43:37.549Z,101409.28
2018-07-19T17:46:06.928Z,101412.72
2018-07-19T17:48:36.334Z,101407.35
2018-07-19T17:51:05.769Z,101409.45
2018-07-19T17:53:35.389Z,101412.27
2018-07-19T17:56:04.857Z,101410.37
2018-07-19T17:58:34.242Z,101410.25
2018-07-19T18:01:03.670Z,101414.71
2018-07-19T18:03:33.218Z,101416.75
2018-07-19T18:06:02.576Z,101413.75
2018-07-19T18:08:31.933Z,101414.13
2018-07-19T18:11:01.426Z,101412.76
2018-07-19T18:13:30.857Z,101406.50
2018-07-19T18:16:00.215Z,101401.48
2018-07-19T18:18:29.817Z,101403.12
2018-07-19T18:20:59.290Z,101403.91
2018-07-19T18:23:28.661Z,101404.52
2018-07-19T18:25:58.272Z,101409.27
2018-07-19T18:28:27.645Z,101406.35
2018-07-19T18:30:57.091Z,101407.28
2018-07-19T18:33:26.624Z,101405.27
2018-07-19T18:35:56.065Z,101405.65
2018-07-19T18:38:25.597Z,101413.55
2018-07-19T18:40:55.070Z,101409.53
2018-07-19T18:43:24.557Z,101416.89
2018-07-19T18:45:54.097Z,101411.22
2018-07-19T18:48:23.609Z,101414.71
2018-07-19T18:50:53.057Z,101412.48
2018-07-19T18:53:22.445Z,101419.91
2018-07-19T18:55:51.922Z,101419.27
2018-07-19T18:58:21.366Z,101416.82
2018-07-19T19:00:50.807Z,101420.09
2018-07-19T19:03:20.271Z,101420.44
2018-07-19T19:05:50.606Z,101422.66
2018-07-19T19:08:20.348Z,101417.49
2018-07-19T19:10:50.249Z,101423.66
2018-07-19T19:13:19.759Z,101419.66
2018-07-19T19:16:03.526Z,101423.08
2018-07-19T19:18:47.607Z,101428.03
2018-07-19T19:23:11.465Z,101424.19
2018-07-19T19:25:41.256Z,101420.33
2018-07-19T19:28:10.840Z,101414.30
2018-07-19T19:30:41.925Z,101418.02
2018-07-19T19:33:11.546Z,101413.67
2018-07-19T19:35:41.068Z,101419.59
2018-07-19T19:38:21.936Z,101421.01
2018-07-19T19:40:51.471Z,101418.69
2018-07-19T19:43:20.851Z,101424.88
2018-07-19T19:45:50.240Z,101427.14
2018-07-19T19:48:19.718Z,101422.70
2018-07-19T19:50:49.348Z,101429.17
2018-07-19T19:53:19.111Z,101429.23
2018-07-19T19:55:48.609Z,101431.63
2018-07-19T19:58:19.219Z,101431.65
2018-07-19T20:00:48.619Z,101435.20
2018-07-19T20:03:18.166Z,101411.12
2018-07-19T20:05:47.558Z,101434.20
2018-07-19T20:08:17.057Z,101429.92
2018-07-19T20:10:46.547Z,101429.45
2018-07-19T20:13:17.415Z,101427.10
2018-07-19T20:15:47.246Z,101426.13
2018-07-19T20:18:16.761Z,101422.63
2018-07-19T20:20:46.927Z,101423.60
2018-07-19T20:23:16.444Z,101425.70
2018-07-19T20:25:45.970Z,101424.50
2018-07-19T20:28:15.780Z,101427.52
2018-07-19T20:30:45.333Z,101430.52
2018-07-19T20:36:40.868Z,101427.58
2018-07-19T20:39:10.207Z,101425.10
2018-07-19T20:41:39.880Z,101425.31
2018-07-19T20:44:09.300Z,101425.57
2018-07-19T20:46:38.763Z,101426.52
2018-07-19T20:49:08.559Z,101422.66
2018-07-19T20:51:38.498Z,101428.36
2018-07-19T20:54:07.880Z,101423.87
2018-07-19T20:56:37.242Z,101424.36
2018-07-19T20:59:07.438Z,101423.98
2018-07-19T21:01:36.607Z,101424.60
2018-07-19T21:04:06.599Z,101429.70
2018-07-19T21:06:36.017Z,101430.70
2018-07-19T21:09:09.595Z,101427.98
2018-07-19T21:11:39.010Z,101424.09
2018-07-19T21:14:08.689Z,101427.09
2018-07-19T21:16:38.129Z,101428.81
2018-07-19T21:19:07.668Z,101429.60
2018-07-19T21:21:37.347Z,101424.84
2018-07-19T21:24:06.731Z,101422.32
2018-07-19T21:26:39.171Z,101430.06
2018-07-19T21:29:39.550Z,101433.09
2018-07-19T21:32:08.945Z,101424.00
2018-07-19T21:34:38.330Z,101426.48
2018-07-19T21:41:26.295Z,101424.04
2018-07-19T21:43:55.727Z,101426.72
2018-07-19T21:46:25.188Z,101430.58
2018-07-19T21:48:54.721Z,101427.75
2018-07-19T21:51:24.178Z,101425.75
2018-07-19T21:53:53.587Z,101422.00
2018-07-19T21:56:22.979Z,101421.09
2018-07-19T21:58:52.369Z,101419.94
2018-07-19T22:01:30.567Z,101425.95
2018-07-19T22:04:00.018Z,101423.11
2018-07-19T22:06:29.394Z,101423.53
2018-07-19T22:09:04.302Z,101425.22
2018-07-19T22:11:34.034Z,101423.95
2018-07-19T22:17:00.655Z,101431.13
2018-07-19T22:19:30.166Z,101425.24
2018-07-19T22:21:59.801Z,101425.60
2018-07-19T22:28:27.248Z,101422.40
2018-07-19T22:31:00.779Z,101425.09
2018-07-19T22:33:40.290Z,101427.70
2018-07-19T22:36:19.517Z,101426.48
2018-07-19T22:38:56.995Z,101425.72
2018-07-19T22:41:37.685Z,101421.19
2018-07-19T22:44:13.167Z,101430.03
2018-07-19T22:46:55.335Z,101432.59
2018-07-19T22:49:34.677Z,101433.91
2018-07-19T22:52:09.831Z,101431.05
2018-07-19T22:54:49.934Z,101430.26
2018-07-19T23:00:48.730Z,101430.33
2018-07-19T23:03:24.318Z,101436.66
2018-07-19T23:05:53.950Z,101438.41
2018-07-19T23:08:23.462Z,101427.95
2018-07-19T23:11:15.808Z,101428.89
2018-07-19T23:16:00.378Z,101437.26
2018-07-19T23:21:47.197Z,101434.86
2018-07-19T23:24:18.627Z,101430.23
2018-07-19T23:26:54.535Z,101427.36
2018-07-19T23:29:28.223Z,101428.20
2018-07-19T23:32:00.314Z,101433.65
2018-07-19T23:34:30.043Z,101434.50
2018-07-19T23:37:02.724Z,101430.73
2018-07-19T23:39:35.565Z,101421.08
2018-07-19T23:45:09.460Z,101417.34
2018-07-19T23:47:47.371Z,101417.77
2018-07-19T23:50:23.593Z,101422.37
2018-07-19T23:52:53.042Z,101420.70
2018-07-19T23:57:39.101Z,101416.94
